sensor_id;sensor_type;location;lat;lon;timestamp;temperature;humidity
29453;DHT22;16424;50.956;5.320;2022-10-04T00:03:28;12.80;99.90
29453;DHT22;16424;50.956;5.320;2022-10-04T00:05:58;12.80;99.90
29453;DHT22;16424;50.956;5.320;2022-10-04T00:08:57;12.80;99.90
29453;DHT22;16424;50.956;5.320;2022-10-04T00:11:25;12.70;99.90
29453;DHT22;16424;50.956;5.320;2022-10-04T00:13:59;12.70;99.90
29453;DHT22;16424;50.956;5.320;2022-10-04T00:16:31;12.60;99.90
29453;DHT22;16424;50.956;5.320;2022-10-04T00:24:35;12.60;99.90
29453;DHT22;16424;50.956;5.320;2022-10-04T00:27:23;12.50;99.90
29453;DHT22;16424;50.956;5.320;2022-10-04T00:32:45;12.50;99.90
29453;DHT22;16424;50.956;5.320;2022-10-04T00:37:58;12.60;99.90
29453;DHT22;16424;50.956;5.320;2022-10-04T00:40:28;12.60;99.90
29453;DHT22;16424;50.956;5.320;2022-10-04T00:42:58;12.60;99.90
29453;DHT22;16424;50.956;5.320;2022-10-04T00:45:37;12.70;99.90
29453;DHT22;16424;50.956;5.320;2022-10-04T00:50:42;12.40;99.90
29453;DHT22;16424;50.956;5.320;2022-10-04T00:56:11;12.40;99.90
29453;DHT22;16424;50.956;5.320;2022-10-04T01:01:23;12.30;99.90
29453;DHT22;16424;50.956;5.320;2022-10-04T01:03:53;12.20;99.90
29453;DHT22;16424;50.956;5.320;2022-10-04T01:06:21;12.20;99.90
29453;DHT22;16424;50.956;5.320;2022-10-04T01:08:50;12.10;99.90
29453;DHT22;16424;50.956;5.320;2022-10-04T01:11:27;12.10;99.90
29453;DHT22;16424;50.956;5.320;2022-10-04T01:14:00;12.00;99.90
29453;DHT22;16424;50.956;5.320;2022-10-04T01:16:31;12.10;99.90
29453;DHT22;16424;50.956;5.320;2022-10-04T01:24:34;11.80;99.90
29453;DHT22;16424;50.956;5.320;2022-10-04T01:27:01;11.80;99.90
29453;DHT22;16424;50.956;5.320;2022-10-04T01:29:28;11.90;99.90
29453;DHT22;16424;50.956;5.320;2022-10-04T01:31:59;11.90;99.90
29453;DHT22;16424;50.956;5.320;2022-10-04T01:34:27;11.90;99.90
29453;DHT22;16424;50.956;5.320;2022-10-04T01:36:55;11.90;99.90
29453;DHT22;16424;50.956;5.320;2022-10-04T01:39:23;11.90;99.90
29453;DHT22;16424;50.956;5.320;2022-10-04T01:42:09;11.80;99.90
29453;DHT22;16424;50.956;5.320;2022-10-04T01:49:53;11.50;99.90
29453;DHT22;16424;50.956;5.320;2022-10-04T01:52:32;11.50;99.90
29453;DHT22;16424;50.956;5.320;2022-10-04T01:55:07;11.40;99.90
29453;DHT22;16424;50.956;5.320;2022-10-04T01:57:45;11.40;99.90
29453;DHT22;16424;50.956;5.320;2022-10-04T02:00:13;11.40;99.90
29453;DHT22;16424;50.956;5.320;2022-10-04T02:05:25;11.50;99.90
29453;DHT22;16424;50.956;5.320;2022-10-04T02:07:53;11.50;99.90
29453;DHT22;16424;50.956;5.320;2022-10-04T02:10:20;11.50;99.90
29453;DHT22;16424;50.956;5.320;2022-10-04T02:12:50;11.60;99.90
29453;DHT22;16424;50.956;5.320;2022-10-04T02:15:18;11.60;99.90
29453;DHT22;16424;50.956;5.320;2022-10-04T02:17:45;11.60;99.90
29453;DHT22;16424;50.956;5.320;2022-10-04T02:20:17;11.50;99.90
29453;DHT22;16424;50.956;5.320;2022-10-04T02:22:48;11.50;99.90
29453;DHT22;16424;50.956;5.320;2022-10-04T02:25:17;11.30;99.90
29453;DHT22;16424;50.956;5.320;2022-10-04T02:27:44;11.20;99.90
29453;DHT22;16424;50.956;5.320;2022-10-04T02:30:11;11.20;99.90
29453;DHT22;16424;50.956;5.320;2022-10-04T02:32:40;11.20;99.90
29453;DHT22;16424;50.956;5.320;2022-10-04T02:35:44;11.20;99.90
29453;DHT22;16424;50.956;5.320;2022-10-04T02:38:21;11.40;99.90
29453;DHT22;16424;50.956;5.320;2022-10-04T02:43:38;11.20;99.90
29453;DHT22;16424;50.956;5.320;2022-10-04T02:46:13;11.10;99.90
29453;DHT22;16424;50.956;5.320;2022-10-04T02:48:48;11.00;99.90
29453;DHT22;16424;50.956;5.320;2022-10-04T02:56:27;10.90;99.90
29453;DHT22;16424;50.956;5.320;2022-10-04T02:58:53;10.80;99.90
29453;DHT22;16424;50.956;5.320;2022-10-04T03:01:25;10.80;99.90
29453;DHT22;16424;50.956;5.320;2022-10-04T03:03:53;10.80;99.90
29453;DHT22;16424;50.956;5.320;2022-10-04T03:06:21;10.80;99.90
29453;DHT22;16424;50.956;5.320;2022-10-04T03:08:53;10.70;99.90
29453;DHT22;16424;50.956;5.320;2022-10-04T03:11:24;10.70;99.90
29453;DHT22;16424;50.956;5.320;2022-10-04T03:13:54;10.90;99.90
29453;DHT22;16424;50.956;5.320;2022-10-04T03:16:21;10.80;99.90
29453;DHT22;16424;50.956;5.320;2022-10-04T03:18:51;10.80;99.90
29453;DHT22;16424;50.956;5.320;2022-10-04T03:21:19;10.90;99.90
29453;DHT22;16424;50.956;5.320;2022-10-04T03:23:47;10.90;99.90
29453;DHT22;16424;50.956;5.320;2022-10-04T03:26:43;10.80;99.90
29453;DHT22;16424;50.956;5.320;2022-10-04T03:29:10;10.80;99.90
29453;DHT22;16424;50.956;5.320;2022-10-04T03:31:43;10.70;99.90
29453;DHT22;16424;50.956;5.320;2022-10-04T03:34:17;10.60;99.90
29453;DHT22;16424;50.956;5.320;2022-10-04T03:36:45;10.60;99.90
29453;DHT22;16424;50.956;5.320;2022-10-04T03:39:50;10.60;99.90
29453;DHT22;16424;50.956;5.320;2022-10-04T03:42:20;10.60;99.90
29453;DHT22;16424;50.956;5.320;2022-10-04T03:44:49;10.60;99.90
29453;DHT22;16424;50.956;5.320;2022-10-04T03:47:25;10.60;99.90
29453;DHT22;16424;50.956;5.320;2022-10-04T03:49:52;10.40;99.90
29453;DHT22;16424;50.956;5.320;2022-10-04T03:52:32;10.40;99.90
29453;DHT22;16424;50.956;5.320;2022-10-04T03:55:03;10.30;99.90
29453;DHT22;16424;50.956;5.320;2022-10-04T03:57:30;10.20;99.90
29453;DHT22;16424;50.956;5.320;2022-10-04T03:59:57;10.10;99.90
29453;DHT22;16424;50.956;5.320;2022-10-04T04:02:38;10.10;99.90
29453;DHT22;16424;50.956;5.320;2022-10-04T04:05:27;10.10;99.90
29453;DHT22;16424;50.956;5.320;2022-10-04T04:08:14;10.10;99.90
29453;DHT22;16424;50.956;5.320;2022-10-04T04:10:46;10.20;99.90
29453;DHT22;16424;50.956;5.320;2022-10-04T04:13:26;10.20;99.90
29453;DHT22;16424;50.956;5.320;2022-10-04T04:15:54;10.30;99.90
29453;DHT22;16424;50.956;5.320;2022-10-04T04:18:26;10.40;99.90
29453;DHT22;16424;50.956;5.320;2022-10-04T04:20:55;10.60;99.90
29453;DHT22;16424;50.956;5.320;2022-10-04T04:23:30;10.60;99.90
29453;DHT22;16424;50.956;5.320;2022-10-04T04:29:01;10.70;99.90
29453;DHT22;16424;50.956;5.320;2022-10-04T04:34:00;10.60;99.90
29453;DHT22;16424;50.956;5.320;2022-10-04T04:36:28;10.40;99.90
29453;DHT22;16424;50.956;5.320;2022-10-04T04:39:06;10.40;99.90
29453;DHT22;16424;50.956;5.320;2022-10-04T04:41:50;10.40;99.90
29453;DHT22;16424;50.956;5.320;2022-10-04T04:44:17;10.20;99.90
29453;DHT22;16424;50.956;5.320;2022-10-04T04:46:44;10.20;99.90
29453;DHT22;16424;50.956;5.320;2022-10-04T04:49:10;10.20;99.90
29453;DHT22;16424;50.956;5.320;2022-10-04T04:51:48;10.10;99.90
29453;DHT22;16424;50.956;5.320;2022-10-04T04:54:17;10.10;99.90
29453;DHT22;16424;50.956;5.320;2022-10-04T04:56:47;10.10;99.90
29453;DHT22;16424;50.956;5.320;2022-10-04T04:59:14;10.00;99.90
29453;DHT22;16424;50.956;5.320;2022-10-04T05:01:43;10.10;99.90
29453;DHT22;16424;50.956;5.320;2022-10-04T05:06:46;10.10;99.90
29453;DHT22;16424;50.956;5.320;2022-10-04T05:09:25;10.10;99.90
29453;DHT22;16424;50.956;5.320;2022-10-04T05:11:56;10.20;99.90
29453;DHT22;16424;50.956;5.320;2022-10-04T05:14:23;10.30;99.90
29453;DHT22;16424;50.956;5.320;2022-10-04T05:16:50;10.30;99.90
29453;DHT22;16424;50.956;5.320;2022-10-04T05:19:30;10.20;99.90
29453;DHT22;16424;50.956;5.320;2022-10-04T05:21:58;10.30;99.90
29453;DHT22;16424;50.956;5.320;2022-10-04T05:24:31;10.30;99.90
29453;DHT22;16424;50.956;5.320;2022-10-04T05:27:03;10.40;99.90
29453;DHT22;16424;50.956;5.320;2022-10-04T05:29:36;10.50;99.90
29453;DHT22;16424;50.956;5.320;2022-10-04T05:32:23;10.60;99.90
29453;DHT22;16424;50.956;5.320;2022-10-04T05:34:50;10.70;99.90
29453;DHT22;16424;50.956;5.320;2022-10-04T05:43:19;10.90;99.90
29453;DHT22;16424;50.956;5.320;2022-10-04T05:45:48;10.90;99.90
29453;DHT22;16424;50.956;5.320;2022-10-04T05:48:33;10.80;99.90
29453;DHT22;16424;50.956;5.320;2022-10-04T05:50:59;10.90;99.90
29453;DHT22;16424;50.956;5.320;2022-10-04T05:53:31;10.80;99.90
29453;DHT22;16424;50.956;5.320;2022-10-04T06:07:12;10.70;99.90
29453;DHT22;16424;50.956;5.320;2022-10-04T06:15:43;9.90;99.90
29453;DHT22;16424;50.956;5.320;2022-10-04T06:18:28;9.80;99.90
29453;DHT22;16424;50.956;5.320;2022-10-04T06:21:08;9.80;99.90
29453;DHT22;16424;50.956;5.320;2022-10-04T06:23:55;9.80;99.90
29453;DHT22;16424;50.956;5.320;2022-10-04T06:26:27;9.80;99.90
29453;DHT22;16424;50.956;5.320;2022-10-04T06:28:59;9.90;99.90
29453;DHT22;16424;50.956;5.320;2022-10-04T06:38:33;10.30;99.90
29453;DHT22;16424;50.956;5.320;2022-10-04T06:41:11;10.40;99.90
29453;DHT22;16424;50.956;5.320;2022-10-04T06:46:52;10.60;99.90
29453;DHT22;16424;50.956;5.320;2022-10-04T06:49:50;10.60;99.90
29453;DHT22;16424;50.956;5.320;2022-10-04T06:58:39;12.00;99.90
29453;DHT22;16424;50.956;5.320;2022-10-04T07:01:29;12.40;99.90
29453;DHT22;16424;50.956;5.320;2022-10-04T07:06:59;13.20;99.90
29453;DHT22;16424;50.956;5.320;2022-10-04T07:09:53;13.60;99.90
29453;DHT22;16424;50.956;5.320;2022-10-04T07:12:21;14.10;99.90
29453;DHT22;16424;50.956;5.320;2022-10-04T07:14:51;14.40;99.90
29453;DHT22;16424;50.956;5.320;2022-10-04T07:17:24;14.50;99.90
29453;DHT22;16424;50.956;5.320;2022-10-04T07:19:52;14.40;99.90
29453;DHT22;16424;50.956;5.320;2022-10-04T07:22:34;14.30;99.90
29453;DHT22;16424;50.956;5.320;2022-10-04T07:30:02;14.30;99.90
29453;DHT22;16424;50.956;5.320;2022-10-04T07:32:34;14.40;99.90
29453;DHT22;16424;50.956;5.320;2022-10-04T07:37:58;16.10;99.90
29453;DHT22;16424;50.956;5.320;2022-10-04T07:40:36;17.30;99.90
29453;DHT22;16424;50.956;5.320;2022-10-04T07:43:06;18.30;99.90
29453;DHT22;16424;50.956;5.320;2022-10-04T07:45:38;18.60;99.90
29453;DHT22;16424;50.956;5.320;2022-10-04T07:48:11;19.20;99.90
29453;DHT22;16424;50.956;5.320;2022-10-04T07:53:15;20.40;99.90
29453;DHT22;16424;50.956;5.320;2022-10-04T07:55:59;20.40;99.90
29453;DHT22;16424;50.956;5.320;2022-10-04T08:01:01;19.40;99.90
29453;DHT22;16424;50.956;5.320;2022-10-04T08:15:13;21.50;99.90
29453;DHT22;16424;50.956;5.320;2022-10-04T08:18:08;21.30;99.90
29453;DHT22;16424;50.956;5.320;2022-10-04T08:21:01;21.00;99.90
29453;DHT22;16424;50.956;5.320;2022-10-04T08:26:25;21.60;99.90
29453;DHT22;16424;50.956;5.320;2022-10-04T08:34:51;22.00;99.90
29453;DHT22;16424;50.956;5.320;2022-10-04T08:45:50;22.80;99.90
29453;DHT22;16424;50.956;5.320;2022-10-04T08:57:04;21.70;99.90
29453;DHT22;16424;50.956;5.320;2022-10-04T09:00:01;21.50;99.90
29453;DHT22;16424;50.956;5.320;2022-10-04T09:02:55;22.20;99.90
29453;DHT22;16424;50.956;5.320;2022-10-04T09:05:43;22.30;99.90
29453;DHT22;16424;50.956;5.320;2022-10-04T09:16:47;22.60;99.90
29453;DHT22;16424;50.956;5.320;2022-10-04T09:19:43;21.70;99.90
29453;DHT22;16424;50.956;5.320;2022-10-04T09:22:17;21.40;99.90
29453;DHT22;16424;50.956;5.320;2022-10-04T09:24:58;21.20;99.90
29453;DHT22;16424;50.956;5.320;2022-10-04T09:27:49;21.20;99.90
29453;DHT22;16424;50.956;5.320;2022-10-04T09:30:22;20.00;99.90
29453;DHT22;16424;50.956;5.320;2022-10-04T09:39:18;20.70;99.90
29453;DHT22;16424;50.956;5.320;2022-10-04T09:41:59;20.90;99.90
29453;DHT22;16424;50.956;5.320;2022-10-04T10:01:03;18.50;99.90
29453;DHT22;16424;50.956;5.320;2022-10-04T10:06:50;19.00;99.90
29453;DHT22;16424;50.956;5.320;2022-10-04T10:12:45;18.50;99.90
29453;DHT22;16424;50.956;5.320;2022-10-04T10:15:54;18.50;99.90
29453;DHT22;16424;50.956;5.320;2022-10-04T10:18:49;18.70;99.90
29453;DHT22;16424;50.956;5.320;2022-10-04T10:21:32;18.70;99.90
29453;DHT22;16424;50.956;5.320;2022-10-04T10:41:29;19.30;99.90
29453;DHT22;16424;50.956;5.320;2022-10-04T10:47:30;19.10;99.90
29453;DHT22;16424;50.956;5.320;2022-10-04T10:56:28;18.90;99.90
29453;DHT22;16424;50.956;5.320;2022-10-04T10:59:20;19.00;99.90
29453;DHT22;16424;50.956;5.320;2022-10-04T11:04:49;19.50;99.90
29453;DHT22;16424;50.956;5.320;2022-10-04T11:15:39;19.40;99.90
29453;DHT22;16424;50.956;5.320;2022-10-04T11:32:27;19.60;99.90
29453;DHT22;16424;50.956;5.320;2022-10-04T11:49:30;19.80;99.90
29453;DHT22;16424;50.956;5.320;2022-10-04T11:52:08;19.90;99.90
29453;DHT22;16424;50.956;5.320;2022-10-04T11:57:55;20.00;99.90
29453;DHT22;16424;50.956;5.320;2022-10-04T12:00:25;19.90;99.90
29453;DHT22;16424;50.956;5.320;2022-10-04T12:32:14;19.60;99.90
29453;DHT22;16424;50.956;5.320;2022-10-04T12:43:19;20.10;99.90
29453;DHT22;16424;50.956;5.320;2022-10-04T12:49:02;20.20;99.90
29453;DHT22;16424;50.956;5.320;2022-10-04T12:51:39;20.40;99.90
29453;DHT22;16424;50.956;5.320;2022-10-04T12:54:38;20.00;99.90
29453;DHT22;16424;50.956;5.320;2022-10-04T13:03:22;20.10;99.90
29453;DHT22;16424;50.956;5.320;2022-10-04T13:05:57;19.50;99.90
29453;DHT22;16424;50.956;5.320;2022-10-04T13:14:46;20.30;99.90
29453;DHT22;16424;50.956;5.320;2022-10-04T13:28:24;21.20;99.90
29453;DHT22;16424;50.956;5.320;2022-10-04T13:31:23;21.40;99.90
29453;DHT22;16424;50.956;5.320;2022-10-04T13:34:09;21.30;99.90
29453;DHT22;16424;50.956;5.320;2022-10-04T13:45:20;21.50;99.90
29453;DHT22;16424;50.956;5.320;2022-10-04T13:56:52;21.40;99.90
29453;DHT22;16424;50.956;5.320;2022-10-04T13:59:31;21.60;99.90
29453;DHT22;16424;50.956;5.320;2022-10-04T14:05:12;21.20;99.90
29453;DHT22;16424;50.956;5.320;2022-10-04T14:24:48;21.70;99.90
29453;DHT22;16424;50.956;5.320;2022-10-04T14:36:23;21.40;99.90
29453;DHT22;16424;50.956;5.320;2022-10-04T14:44:42;21.90;99.90
29453;DHT22;16424;50.956;5.320;2022-10-04T14:47:33;21.60;99.90
29453;DHT22;16424;50.956;5.320;2022-10-04T14:50:26;21.50;99.90
29453;DHT22;16424;50.956;5.320;2022-10-04T15:02:07;20.80;99.90
29453;DHT22;16424;50.956;5.320;2022-10-04T15:13:17;20.40;99.90
29453;DHT22;16424;50.956;5.320;2022-10-04T15:21:26;20.90;99.90
29453;DHT22;16424;50.956;5.320;2022-10-04T15:23:59;20.90;99.90
29453;DHT22;16424;50.956;5.320;2022-10-04T15:32:43;20.90;99.90
29453;DHT22;16424;50.956;5.320;2022-10-04T16:01:14;20.30;99.90
29453;DHT22;16424;50.956;5.320;2022-10-04T16:06:44;20.10;99.90
29453;DHT22;16424;50.956;5.320;2022-10-04T16:09:25;20.10;99.90
29453;DHT22;16424;50.956;5.320;2022-10-04T16:15:00;20.00;99.90
29453;DHT22;16424;50.956;5.320;2022-10-04T16:21:04;20.00;99.90
29453;DHT22;16424;50.956;5.320;2022-10-04T16:25:49;20.00;99.90
29453;DHT22;16424;50.956;5.320;2022-10-04T16:31:20;20.00;99.90
29453;DHT22;16424;50.956;5.320;2022-10-04T16:39:36;19.90;99.90
29453;DHT22;16424;50.956;5.320;2022-10-04T16:45:23;19.60;99.90
29453;DHT22;16424;50.956;5.320;2022-10-04T16:47:58;19.60;99.90
29453;DHT22;16424;50.956;5.320;2022-10-04T16:50:52;19.50;99.90
29453;DHT22;16424;50.956;5.320;2022-10-04T16:56:08;19.30;99.90
29453;DHT22;16424;50.956;5.320;2022-10-04T16:58:42;19.30;99.90
29453;DHT22;16424;50.956;5.320;2022-10-04T17:06:53;19.10;99.90
29453;DHT22;16424;50.956;5.320;2022-10-04T17:09:36;18.80;99.90
29453;DHT22;16424;50.956;5.320;2022-10-04T17:12:23;18.80;99.90
29453;DHT22;16424;50.956;5.320;2022-10-04T17:17:43;18.50;99.90
29453;DHT22;16424;50.956;5.320;2022-10-04T17:32:08;17.80;99.90
29453;DHT22;16424;50.956;5.320;2022-10-04T17:34:59;17.80;99.90
29453;DHT22;16424;50.956;5.320;2022-10-04T17:38:09;17.70;99.90
29453;DHT22;16424;50.956;5.320;2022-10-04T17:44:05;17.70;99.90
29453;DHT22;16424;50.956;5.320;2022-10-04T17:52:26;17.60;99.90
29453;DHT22;16424;50.956;5.320;2022-10-04T17:55:28;17.40;99.90
29453;DHT22;16424;50.956;5.320;2022-10-04T17:58:54;17.30;99.90
29453;DHT22;16424;50.956;5.320;2022-10-04T18:01:13;17.30;99.90
29453;DHT22;16424;50.956;5.320;2022-10-04T18:03:50;17.10;99.90
29453;DHT22;16424;50.956;5.320;2022-10-04T18:08:57;16.80;99.90
29453;DHT22;16424;50.956;5.320;2022-10-04T18:11:44;16.70;99.90
29453;DHT22;16424;50.956;5.320;2022-10-04T18:17:09;16.60;99.90
29453;DHT22;16424;50.956;5.320;2022-10-04T18:19:49;16.50;99.90
29453;DHT22;16424;50.956;5.320;2022-10-04T18:22:23;16.40;99.90
29453;DHT22;16424;50.956;5.320;2022-10-04T18:25:18;16.30;99.90
29453;DHT22;16424;50.956;5.320;2022-10-04T18:30:16;16.20;99.90
29453;DHT22;16424;50.956;5.320;2022-10-04T18:32:45;16.20;99.90
29453;DHT22;16424;50.956;5.320;2022-10-04T18:37:50;16.20;99.90
29453;DHT22;16424;50.956;5.320;2022-10-04T18:40:22;16.20;99.90
29453;DHT22;16424;50.956;5.320;2022-10-04T18:42:58;16.30;99.90
29453;DHT22;16424;50.956;5.320;2022-10-04T18:45:29;16.20;99.90
29453;DHT22;16424;50.956;5.320;2022-10-04T18:47:58;16.20;99.90
29453;DHT22;16424;50.956;5.320;2022-10-04T18:50:38;16.30;99.90
29453;DHT22;16424;50.956;5.320;2022-10-04T18:53:25;16.30;99.90
29453;DHT22;16424;50.956;5.320;2022-10-04T18:56:09;16.40;99.90
29453;DHT22;16424;50.956;5.320;2022-10-04T18:58:55;16.40;99.90
29453;DHT22;16424;50.956;5.320;2022-10-04T19:01:58;16.40;99.90
29453;DHT22;16424;50.956;5.320;2022-10-04T19:04:44;16.40;99.90
29453;DHT22;16424;50.956;5.320;2022-10-04T19:18:48;16.50;99.90
29453;DHT22;16424;50.956;5.320;2022-10-04T19:21:18;16.40;99.90
29453;DHT22;16424;50.956;5.320;2022-10-04T19:26:36;16.50;99.90
29453;DHT22;16424;50.956;5.320;2022-10-04T19:31:59;16.50;99.90
29453;DHT22;16424;50.956;5.320;2022-10-04T19:37:36;16.40;99.90
29453;DHT22;16424;50.956;5.320;2022-10-04T19:40:25;16.40;99.90
29453;DHT22;16424;50.956;5.320;2022-10-04T19:43:16;16.40;99.90
29453;DHT22;16424;50.956;5.320;2022-10-04T19:49:00;16.20;99.90
29453;DHT22;16424;50.956;5.320;2022-10-04T19:51:35;16.00;99.90
29453;DHT22;16424;50.956;5.320;2022-10-04T19:54:17;16.00;99.90
29453;DHT22;16424;50.956;5.320;2022-10-04T19:56:47;16.00;99.90
29453;DHT22;16424;50.956;5.320;2022-10-04T19:59:40;16.00;99.90
29453;DHT22;16424;50.956;5.320;2022-10-04T20:02:10;16.00;99.90
29453;DHT22;16424;50.956;5.320;2022-10-04T20:04:36;16.00;99.90
29453;DHT22;16424;50.956;5.320;2022-10-04T20:07:25;15.90;99.90
29453;DHT22;16424;50.956;5.320;2022-10-04T20:10:15;15.90;99.90
29453;DHT22;16424;50.956;5.320;2022-10-04T20:12:39;15.90;99.90
29453;DHT22;16424;50.956;5.320;2022-10-04T20:17:39;15.80;99.90
29453;DHT22;16424;50.956;5.320;2022-10-04T20:20:05;15.80;99.90
29453;DHT22;16424;50.956;5.320;2022-10-04T20:22:52;15.80;99.90
29453;DHT22;16424;50.956;5.320;2022-10-04T20:30:56;15.60;99.90
29453;DHT22;16424;50.956;5.320;2022-10-04T20:35:58;15.60;99.90
29453;DHT22;16424;50.956;5.320;2022-10-04T20:38:42;15.70;99.90
29453;DHT22;16424;50.956;5.320;2022-10-04T20:46:30;15.50;99.90
29453;DHT22;16424;50.956;5.320;2022-10-04T20:49:00;15.60;99.90
29453;DHT22;16424;50.956;5.320;2022-10-04T20:51:29;15.50;99.90
29453;DHT22;16424;50.956;5.320;2022-10-04T20:53:58;15.40;99.90
29453;DHT22;16424;50.956;5.320;2022-10-04T20:56:31;15.50;99.90
29453;DHT22;16424;50.956;5.320;2022-10-04T20:58:59;15.50;99.90
29453;DHT22;16424;50.956;5.320;2022-10-04T21:01:25;15.50;99.90
29453;DHT22;16424;50.956;5.320;2022-10-04T21:04:20;15.40;99.90
29453;DHT22;16424;50.956;5.320;2022-10-04T21:07:08;15.20;99.90
29453;DHT22;16424;50.956;5.320;2022-10-04T21:09:37;15.20;99.90
29453;DHT22;16424;50.956;5.320;2022-10-04T21:12:04;15.30;99.90
29453;DHT22;16424;50.956;5.320;2022-10-04T21:14:35;15.30;99.90
29453;DHT22;16424;50.956;5.320;2022-10-04T21:19:52;15.20;99.90
29453;DHT22;16424;50.956;5.320;2022-10-04T21:27:37;15.30;99.90
29453;DHT22;16424;50.956;5.320;2022-10-04T21:30:12;15.20;99.90
29453;DHT22;16424;50.956;5.320;2022-10-04T21:32:38;15.10;99.90
29453;DHT22;16424;50.956;5.320;2022-10-04T21:35:05;15.10;99.90
29453;DHT22;16424;50.956;5.320;2022-10-04T21:37:31;15.00;99.90
29453;DHT22;16424;50.956;5.320;2022-10-04T21:39:57;15.00;99.90
29453;DHT22;16424;50.956;5.320;2022-10-04T21:42:22;15.10;99.90
29453;DHT22;16424;50.956;5.320;2022-10-04T21:44:48;15.10;99.90
29453;DHT22;16424;50.956;5.320;2022-10-04T21:47:14;15.00;99.90
29453;DHT22;16424;50.956;5.320;2022-10-04T21:49:40;15.00;99.90
29453;DHT22;16424;50.956;5.320;2022-10-04T21:52:06;15.00;99.90
29453;DHT22;16424;50.956;5.320;2022-10-04T21:54:32;15.00;99.90
29453;DHT22;16424;50.956;5.320;2022-10-04T21:56:57;15.00;99.90
29453;DHT22;16424;50.956;5.320;2022-10-04T21:59:23;15.10;99.90
29453;DHT22;16424;50.956;5.320;2022-10-04T22:01:49;15.00;99.90
29453;DHT22;16424;50.956;5.320;2022-10-04T22:04:15;15.00;99.90
29453;DHT22;16424;50.956;5.320;2022-10-04T22:06:44;15.00;99.90
29453;DHT22;16424;50.956;5.320;2022-10-04T22:09:09;15.10;99.90
29453;DHT22;16424;50.956;5.320;2022-10-04T22:11:35;15.00;99.90
29453;DHT22;16424;50.956;5.320;2022-10-04T22:14:02;14.90;99.90
29453;DHT22;16424;50.956;5.320;2022-10-04T22:16:27;14.90;99.90
29453;DHT22;16424;50.956;5.320;2022-10-04T22:18:54;14.80;99.90
29453;DHT22;16424;50.956;5.320;2022-10-04T22:21:19;14.80;99.90
29453;DHT22;16424;50.956;5.320;2022-10-04T22:23:45;14.80;99.90
29453;DHT22;16424;50.956;5.320;2022-10-04T22:26:20;14.90;99.90
29453;DHT22;16424;50.956;5.320;2022-10-04T22:28:48;15.00;99.90
29453;DHT22;16424;50.956;5.320;2022-10-04T22:31:17;15.00;99.90
29453;DHT22;16424;50.956;5.320;2022-10-04T22:33:44;14.90;99.90
29453;DHT22;16424;50.956;5.320;2022-10-04T22:36:20;14.90;99.90
29453;DHT22;16424;50.956;5.320;2022-10-04T22:38:50;14.80;99.90
29453;DHT22;16424;50.956;5.320;2022-10-04T22:41:19;14.80;99.90
29453;DHT22;16424;50.956;5.320;2022-10-04T22:43:46;14.80;99.90
29453;DHT22;16424;50.956;5.320;2022-10-04T22:46:15;14.90;99.90
29453;DHT22;16424;50.956;5.320;2022-10-04T22:48:42;14.90;99.90
29453;DHT22;16424;50.956;5.320;2022-10-04T22:51:12;14.90;99.90
29453;DHT22;16424;50.956;5.320;2022-10-04T22:53:41;15.00;99.90
29453;DHT22;16424;50.956;5.320;2022-10-04T22:56:08;15.00;99.90
29453;DHT22;16424;50.956;5.320;2022-10-04T22:58:34;15.10;99.90
29453;DHT22;16424;50.956;5.320;2022-10-04T23:01:00;15.20;99.90
29453;DHT22;16424;50.956;5.320;2022-10-04T23:03:28;15.20;99.90
29453;DHT22;16424;50.956;5.320;2022-10-04T23:05:56;15.20;99.90
29453;DHT22;16424;50.956;5.320;2022-10-04T23:08:22;15.20;99.90
29453;DHT22;16424;50.956;5.320;2022-10-04T23:10:52;15.10;99.90
29453;DHT22;16424;50.956;5.320;2022-10-04T23:13:20;15.10;99.90
29453;DHT22;16424;50.956;5.320;2022-10-04T23:15:46;15.10;99.90
29453;DHT22;16424;50.956;5.320;2022-10-04T23:18:16;15.00;99.90
29453;DHT22;16424;50.956;5.320;2022-10-04T23:20:43;14.90;99.90
29453;DHT22;16424;50.956;5.320;2022-10-04T23:23:13;14.90;99.90
29453;DHT22;16424;50.956;5.320;2022-10-04T23:25:46;14.90;99.90
29453;DHT22;16424;50.956;5.320;2022-10-04T23:28:15;14.90;99.90
29453;DHT22;16424;50.956;5.320;2022-10-04T23:30:41;14.90;99.90
29453;DHT22;16424;50.956;5.320;2022-10-04T23:33:33;14.90;99.90
29453;DHT22;16424;50.956;5.320;2022-10-04T23:35:59;14.90;99.90
29453;DHT22;16424;50.956;5.320;2022-10-04T23:38:25;14.80;99.90
29453;DHT22;16424;50.956;5.320;2022-10-04T23:40:50;14.60;99.90
29453;DHT22;16424;50.956;5.320;2022-10-04T23:43:20;14.60;99.90
29453;DHT22;16424;50.956;5.320;2022-10-04T23:45:49;14.50;99.90
29453;DHT22;16424;50.956;5.320;2022-10-04T23:48:21;14.60;99.90
29453;DHT22;16424;50.956;5.320;2022-10-04T23:50:48;14.70;99.90
29453;DHT22;16424;50.956;5.320;2022-10-04T23:53:35;14.70;99.90
29453;DHT22;16424;50.956;5.320;2022-10-04T23:56:09;14.60;99.90
29453;DHT22;16424;50.956;5.320;2022-10-04T23:58:38;14.50;99.90
